Date,TemperatureHighF,TemperatureAvgF,TemperatureLowF,DewpointHighF,DewpointAvgF,DewpointLowF,HumidityHigh,HumidityAvg,HumidityLow,PressureMaxIn,PressureMinIn,WindSpeedMaxMPH,WindSpeedAvgMPH,GustSpeedMaxMPH,PrecipitationSumIn
2013-8-1,81.9,73.9,68.5,71.0,68.4,65.0,97,83,62,29.99,29.94,3,0,0,0.00
2013-8-2,81.6,72.4,64.7,71.0,64.7,62.0,91,78,57,30.04,29.95,1,0,0,0.00
2013-8-3,77.2,72.4,67.5,71.0,66.4,61.0,90,81,74,30.05,29.98,3,0,0,0.00
2013-8-4,82.9,74.1,68.0,71.0,66.9,61.0,93,79,61,30.06,30.00,3,0,0,0.00
2013-8-5,81.0,70.9,64.1,68.0,62.2,57.0,84,75,58,30.06,29.97,3,0,0,0.00
2013-8-6,79.2,73.2,68.7,74.0,68.0,63.0,97,84,75,29.99,29.94,6,0,0,0.14
2013-8-7,80.2,72.0,68.5,75.0,70.3,67.0,97,94,81,30.02,29.94,2,0,0,0.73
2013-8-8,84.1,73.2,68.9,77.0,71.0,67.0,97,93,76,30.03,29.95,4,0,0,0.84
2013-8-9,86.3,75.7,69.0,78.0,72.3,68.0,96,89,73,30.06,29.98,4,0,0,0.05
2013-8-10,81.9,75.0,72.2,75.0,72.1,71.0,96,91,75,30.11,30.04,3,0,0,0.27
2013-8-11,81.6,74.5,70.8,74.0,71.4,69.0,96,90,74,30.14,30.05,4,0,0,0.62
2013-8-12,82.0,73.6,69.3,75.0,71.2,68.0,96,92,77,30.10,29.96,4,0,0,0.95
2013-8-13,80.8,73.1,69.5,72.0,69.6,67.0,97,89,69,29.98,29.89,5,0,0,0.59
2013-8-14,75.7,68.6,61.9,68.0,63.8,57.0,95,85,67,30.03,29.92,3,0,0,0.00
2013-8-15,73.2,65.5,60.4,68.0,60.1,55.0,91,83,74,30.07,30.01,2,0,0,0.00
2013-8-16,69.6,64.9,62.7,64.0,61.0,57.0,91,87,79,30.10,30.03,1,0,0,0.00
2013-8-17,68.2,64.4,62.3,65.0,62.4,60.0,98,93,87,30.13,30.06,0,0,0,0.21
2013-8-18,70.8,65.9,62.6,68.0,64.7,62.0,98,96,84,30.18,30.10,3,0,0,0.30
2013-8-19,76.6,68.6,65.1,73.0,67.6,65.0,99,96,84,30.14,30.04,2,0,0,0.14
2013-8-20,78.3,71.8,68.4,74.0,69.8,67.0,96,93,85,30.16,30.08,0,0,0,0.28
2013-8-21,74.9,71.7,70.1,73.0,70.4,69.0,97,95,89,30.19,30.10,1,0,0,0.01
2013-8-22,82.2,72.4,67.8,76.0,70.2,67.0,98,93,76,30.16,30.05,3,0,0,0.23
2013-8-23,82.5,72.7,66.6,76.0,69.2,65.0,95,89,74,30.09,29.98,3,0,0,0.13
2013-8-24,82.3,72.0,66.3,74.0,68.3,64.0,96,88,71,30.22,30.05,3,0,0,0.05
2013-8-25,78.5,71.0,65.5,68.0,64.0,60.0,96,79,58,30.34,30.22,4,0,0,0.00
2013-8-26,78.8,70.2,60.4,68.0,62.0,57.0,90,76,63,30.31,30.15,3,0,0,0.00
2013-8-27,81.0,72.4,65.0,72.0,65.3,61.0,88,78,67,30.16,30.04,1,0,0,0.00
2013-8-28,82.8,75.5,68.3,75.0,68.8,65.0,91,80,68,30.07,29.98,1,0,0,0.00
2013-8-29,86.1,78.0,70.8,74.0,70.4,68.0,90,78,64,30.02,29.93,4,0,0,0.00
2013-8-30,80.0,74.5,71.3,75.0,71.4,69.0,95,90,80,29.99,29.91,2,0,0,0.47
2013-8-31,86.5,75.8,70.6,77.0,71.1,68.0,96,86,56,29.96,29.84,3,0,0,0.04